sensor_id;sensor_type;location;lat;lon;timestamp;P1;durP1;ratioP1;P2;durP2;ratioP2
61642;SDS011;47551;52.506;4.678;2022-09-25T00:00:12;5.60;;;2.20;;
61642;SDS011;47551;52.506;4.678;2022-09-25T00:00:32;5.33;;;2.00;;
61642;SDS011;47551;52.506;4.678;2022-09-25T00:00:53;6.40;;;2.17;;
61642;SDS011;47551;52.506;4.678;2022-09-25T00:01:13;5.53;;;2.08;;
61642;SDS011;47551;52.506;4.678;2022-09-25T00:01:34;7.53;;;2.30;;
61642;SDS011;47551;52.506;4.678;2022-09-25T00:01:57;7.53;;;2.08;;
61642;SDS011;47551;52.506;4.678;2022-09-25T00:02:20;5.75;;;2.10;;
61642;SDS011;47551;52.506;4.678;2022-09-25T00:02:40;6.90;;;2.10;;
61642;SDS011;47551;52.506;4.678;2022-09-25T00:03:00;5.40;;;2.13;;
61642;SDS011;47551;52.506;4.678;2022-09-25T00:03:22;6.67;;;2.00;;
61642;SDS011;47551;52.506;4.678;2022-09-25T00:03:45;6.18;;;1.88;;
61642;SDS011;47551;52.506;4.678;2022-09-25T00:04:06;5.53;;;2.13;;
61642;SDS011;47551;52.506;4.678;2022-09-25T00:04:29;6.22;;;2.20;;
61642;SDS011;47551;52.506;4.678;2022-09-25T00:04:52;5.68;;;2.20;;
61642;SDS011;47551;52.506;4.678;2022-09-25T00:05:14;6.50;;;2.20;;
61642;SDS011;47551;52.506;4.678;2022-09-25T00:05:38;6.07;;;2.10;;
61642;SDS011;47551;52.506;4.678;2022-09-25T00:06:10;4.18;;;1.80;;
61642;SDS011;47551;52.506;4.678;2022-09-25T00:06:30;7.18;;;2.10;;
61642;SDS011;47551;52.506;4.678;2022-09-25T00:06:52;5.45;;;2.00;;
61642;SDS011;47551;52.506;4.678;2022-09-25T00:07:12;5.47;;;1.90;;
61642;SDS011;47551;52.506;4.678;2022-09-25T00:07:32;5.82;;;1.95;;
61642;SDS011;47551;52.506;4.678;2022-09-25T00:07:52;5.03;;;2.10;;
61642;SDS011;47551;52.506;4.678;2022-09-25T00:08:15;6.25;;;2.25;;
61642;SDS011;47551;52.506;4.678;2022-09-25T00:08:36;5.78;;;2.17;;
61642;SDS011;47551;52.506;4.678;2022-09-25T00:08:58;5.25;;;2.10;;
61642;SDS011;47551;52.506;4.678;2022-09-25T00:09:18;5.05;;;1.90;;
61642;SDS011;47551;52.506;4.678;2022-09-25T00:09:40;5.60;;;2.00;;
61642;SDS011;47551;52.506;4.678;2022-09-25T00:10:00;6.47;;;2.10;;
61642;SDS011;47551;52.506;4.678;2022-09-25T00:10:21;6.47;;;2.13;;
61642;SDS011;47551;52.506;4.678;2022-09-25T00:10:45;6.32;;;2.00;;
61642;SDS011;47551;52.506;4.678;2022-09-25T00:11:07;5.60;;;2.10;;
61642;SDS011;47551;52.506;4.678;2022-09-25T00:11:29;5.50;;;2.10;;
61642;SDS011;47551;52.506;4.678;2022-09-25T00:11:50;5.50;;;2.10;;
61642;SDS011;47551;52.506;4.678;2022-09-25T00:12:10;5.77;;;2.03;;
61642;SDS011;47551;52.506;4.678;2022-09-25T00:12:30;5.87;;;2.17;;
61642;SDS011;47551;52.506;4.678;2022-09-25T00:12:50;5.80;;;2.00;;
61642;SDS011;47551;52.506;4.678;2022-09-25T00:13:10;5.97;;;2.00;;
61642;SDS011;47551;52.506;4.678;2022-09-25T00:13:32;6.00;;;2.20;;
61642;SDS011;47551;52.506;4.678;2022-09-25T00:13:53;5.63;;;1.90;;
61642;SDS011;47551;52.506;4.678;2022-09-25T00:14:13;5.50;;;1.90;;
61642;SDS011;47551;52.506;4.678;2022-09-25T00:14:34;4.50;;;1.80;;
61642;SDS011;47551;52.506;4.678;2022-09-25T00:14:54;4.83;;;1.80;;
61642;SDS011;47551;52.506;4.678;2022-09-25T00:15:14;4.85;;;1.80;;
61642;SDS011;47551;52.506;4.678;2022-09-25T00:15:47;4.82;;;1.75;;
61642;SDS011;47551;52.506;4.678;2022-09-25T00:16:09;5.55;;;2.13;;
61642;SDS011;47551;52.506;4.678;2022-09-25T00:16:30;6.05;;;2.10;;
61642;SDS011;47551;52.506;4.678;2022-09-25T00:16:50;4.93;;;2.10;;
61642;SDS011;47551;52.506;4.678;2022-09-25T00:17:11;5.80;;;2.10;;
61642;SDS011;47551;52.506;4.678;2022-09-25T00:17:34;4.93;;;2.15;;
61642;SDS011;47551;52.506;4.678;2022-09-25T00:17:54;5.35;;;1.80;;
61642;SDS011;47551;52.506;4.678;2022-09-25T00:18:21;6.23;;;1.90;;
61642;SDS011;47551;52.506;4.678;2022-09-25T00:19:00;6.38;;;2.20;;
61642;SDS011;47551;52.506;4.678;2022-09-25T00:19:39;5.78;;;2.08;;
61642;SDS011;47551;52.506;4.678;2022-09-25T00:20:11;4.65;;;1.70;;
61642;SDS011;47551;52.506;4.678;2022-09-25T00:20:33;5.70;;;1.80;;
61642;SDS011;47551;52.506;4.678;2022-09-25T00:20:59;5.25;;;2.00;;
61642;SDS011;47551;52.506;4.678;2022-09-25T00:21:19;4.72;;;1.85;;
61642;SDS011;47551;52.506;4.678;2022-09-25T00:21:40;6.43;;;1.88;;
61642;SDS011;47551;52.506;4.678;2022-09-25T00:22:00;6.15;;;2.00;;
61642;SDS011;47551;52.506;4.678;2022-09-25T00:22:21;6.17;;;1.80;;
61642;SDS011;47551;52.506;4.678;2022-09-25T00:22:42;5.30;;;1.90;;
61642;SDS011;47551;52.506;4.678;2022-09-25T00:23:02;5.00;;;1.77;;
61642;SDS011;47551;52.506;4.678;2022-09-25T00:23:22;5.87;;;1.93;;
61642;SDS011;47551;52.506;4.678;2022-09-25T00:23:43;6.40;;;1.90;;
61642;SDS011;47551;52.506;4.678;2022-09-25T00:24:07;5.45;;;1.80;;
61642;SDS011;47551;52.506;4.678;2022-09-25T00:24:28;5.18;;;1.92;;
61642;SDS011;47551;52.506;4.678;2022-09-25T00:24:48;5.07;;;1.93;;
61642;SDS011;47551;52.506;4.678;2022-09-25T00:25:10;6.55;;;2.00;;
61642;SDS011;47551;52.506;4.678;2022-09-25T00:25:32;5.05;;;1.80;;
61642;SDS011;47551;52.506;4.678;2022-09-25T00:25:52;4.77;;;1.80;;
61642;SDS011;47551;52.506;4.678;2022-09-25T00:26:13;5.93;;;1.90;;
61642;SDS011;47551;52.506;4.678;2022-09-25T00:26:35;5.00;;;1.65;;
61642;SDS011;47551;52.506;4.678;2022-09-25T00:26:55;4.97;;;1.65;;
61642;SDS011;47551;52.506;4.678;2022-09-25T00:27:16;5.40;;;1.75;;
61642;SDS011;47551;52.506;4.678;2022-09-25T00:27:37;6.03;;;2.08;;
61642;SDS011;47551;52.506;4.678;2022-09-25T00:27:57;6.50;;;2.07;;
61642;SDS011;47551;52.506;4.678;2022-09-25T00:28:17;5.20;;;1.80;;
61642;SDS011;47551;52.506;4.678;2022-09-25T00:28:38;5.53;;;1.77;;
61642;SDS011;47551;52.506;4.678;2022-09-25T00:28:58;4.43;;;1.70;;
61642;SDS011;47551;52.506;4.678;2022-09-25T00:29:21;5.85;;;1.80;;
61642;SDS011;47551;52.506;4.678;2022-09-25T00:29:42;5.53;;;1.80;;
61642;SDS011;47551;52.506;4.678;2022-09-25T00:30:05;6.57;;;1.80;;
61642;SDS011;47551;52.506;4.678;2022-09-25T00:30:25;5.20;;;1.80;;
61642;SDS011;47551;52.506;4.678;2022-09-25T00:30:45;5.23;;;1.93;;
61642;SDS011;47551;52.506;4.678;2022-09-25T00:31:06;5.73;;;1.90;;
61642;SDS011;47551;52.506;4.678;2022-09-25T00:31:26;6.70;;;2.00;;
61642;SDS011;47551;52.506;4.678;2022-09-25T00:31:46;5.03;;;2.00;;
61642;SDS011;47551;52.506;4.678;2022-09-25T00:32:08;6.27;;;1.87;;
61642;SDS011;47551;52.506;4.678;2022-09-25T00:32:29;5.65;;;2.05;;
61642;SDS011;47551;52.506;4.678;2022-09-25T00:32:49;5.13;;;1.90;;
61642;SDS011;47551;52.506;4.678;2022-09-25T00:33:12;6.28;;;1.80;;
61642;SDS011;47551;52.506;4.678;2022-09-25T00:33:35;5.05;;;1.70;;
61642;SDS011;47551;52.506;4.678;2022-09-25T00:33:56;4.97;;;1.87;;
61642;SDS011;47551;52.506;4.678;2022-09-25T00:34:17;4.43;;;1.85;;
61642;SDS011;47551;52.506;4.678;2022-09-25T00:34:37;5.00;;;1.90;;
61642;SDS011;47551;52.506;4.678;2022-09-25T00:34:57;6.20;;;1.90;;
61642;SDS011;47551;52.506;4.678;2022-09-25T00:35:17;6.13;;;1.80;;
61642;SDS011;47551;52.506;4.678;2022-09-25T00:35:38;5.40;;;1.80;;
61642;SDS011;47551;52.506;4.678;2022-09-25T00:36:05;4.80;;;1.80;;
61642;SDS011;47551;52.506;4.678;2022-09-25T00:36:26;5.88;;;1.88;;
61642;SDS011;47551;52.506;4.678;2022-09-25T00:36:46;5.72;;;1.80;;
61642;SDS011;47551;52.506;4.678;2022-09-25T00:37:06;5.53;;;1.80;;
61642;SDS011;47551;52.506;4.678;2022-09-25T00:37:26;5.57;;;1.70;;
61642;SDS011;47551;52.506;4.678;2022-09-25T00:37:47;5.18;;;1.70;;
61642;SDS011;47551;52.506;4.678;2022-09-25T00:38:07;5.00;;;1.80;;
61642;SDS011;47551;52.506;4.678;2022-09-25T00:38:27;6.10;;;1.90;;
61642;SDS011;47551;52.506;4.678;2022-09-25T00:38:48;5.67;;;1.80;;
61642;SDS011;47551;52.506;4.678;2022-09-25T00:39:08;5.95;;;1.88;;
61642;SDS011;47551;52.506;4.678;2022-09-25T00:39:29;5.23;;;1.80;;
61642;SDS011;47551;52.506;4.678;2022-09-25T00:39:49;4.93;;;1.55;;
61642;SDS011;47551;52.506;4.678;2022-09-25T00:40:09;5.53;;;1.77;;
61642;SDS011;47551;52.506;4.678;2022-09-25T00:40:30;4.72;;;1.83;;
61642;SDS011;47551;52.506;4.678;2022-09-25T00:40:50;4.63;;;1.80;;
61642;SDS011;47551;52.506;4.678;2022-09-25T00:41:10;5.87;;;1.80;;
61642;SDS011;47551;52.506;4.678;2022-09-25T00:41:30;5.97;;;1.75;;
61642;SDS011;47551;52.506;4.678;2022-09-25T00:41:53;4.97;;;1.80;;
61642;SDS011;47551;52.506;4.678;2022-09-25T00:42:14;5.70;;;1.70;;
61642;SDS011;47551;52.506;4.678;2022-09-25T00:42:37;5.22;;;1.70;;
61642;SDS011;47551;52.506;4.678;2022-09-25T00:42:59;4.28;;;1.67;;
61642;SDS011;47551;52.506;4.678;2022-09-25T00:45:19;5.13;;;1.80;;
61642;SDS011;47551;52.506;4.678;2022-09-25T00:45:40;4.85;;;1.75;;
61642;SDS011;47551;52.506;4.678;2022-09-25T00:46:02;5.28;;;1.80;;
61642;SDS011;47551;52.506;4.678;2022-09-25T00:46:29;5.68;;;1.80;;
61642;SDS011;47551;52.506;4.678;2022-09-25T00:46:50;6.05;;;1.80;;
61642;SDS011;47551;52.506;4.678;2022-09-25T00:47:10;4.70;;;1.70;;
61642;SDS011;47551;52.506;4.678;2022-09-25T00:47:58;6.22;;;1.95;;
61642;SDS011;47551;52.506;4.678;2022-09-25T00:48:22;6.28;;;1.70;;
61642;SDS011;47551;52.506;4.678;2022-09-25T00:48:47;4.70;;;1.80;;
61642;SDS011;47551;52.506;4.678;2022-09-25T00:49:16;5.15;;;1.80;;
61642;SDS011;47551;52.506;4.678;2022-09-25T00:49:36;5.07;;;1.60;;
61642;SDS011;47551;52.506;4.678;2022-09-25T00:49:56;6.07;;;1.73;;
61642;SDS011;47551;52.506;4.678;2022-09-25T00:50:54;5.63;;;1.90;;
61642;SDS011;47551;52.506;4.678;2022-09-25T00:51:16;4.72;;;1.60;;
61642;SDS011;47551;52.506;4.678;2022-09-25T00:51:41;5.38;;;1.80;;
61642;SDS011;47551;52.506;4.678;2022-09-25T00:52:05;4.45;;;1.50;;
61642;SDS011;47551;52.506;4.678;2022-09-25T00:52:26;5.75;;;1.80;;
61642;SDS011;47551;52.506;4.678;2022-09-25T00:52:46;5.78;;;1.90;;
61642;SDS011;47551;52.506;4.678;2022-09-25T00:53:10;5.00;;;1.70;;
61642;SDS011;47551;52.506;4.678;2022-09-25T00:53:33;3.80;;;1.60;;
61642;SDS011;47551;52.506;4.678;2022-09-25T00:53:56;5.40;;;1.70;;
61642;SDS011;47551;52.506;4.678;2022-09-25T00:54:21;5.43;;;1.67;;
61642;SDS011;47551;52.506;4.678;2022-09-25T00:54:45;5.07;;;1.70;;
61642;SDS011;47551;52.506;4.678;2022-09-25T00:55:11;6.30;;;1.80;;
61642;SDS011;47551;52.506;4.678;2022-09-25T00:55:32;5.97;;;1.90;;
61642;SDS011;47551;52.506;4.678;2022-09-25T00:55:52;5.63;;;2.00;;
61642;SDS011;47551;52.506;4.678;2022-09-25T00:56:13;6.33;;;1.90;;
61642;SDS011;47551;52.506;4.678;2022-09-25T00:56:37;5.20;;;1.80;;
61642;SDS011;47551;52.506;4.678;2022-09-25T00:56:59;5.50;;;1.70;;
61642;SDS011;47551;52.506;4.678;2022-09-25T00:57:20;7.03;;;1.80;;
61642;SDS011;47551;52.506;4.678;2022-09-25T00:57:42;6.70;;;1.80;;
61642;SDS011;47551;52.506;4.678;2022-09-25T00:58:03;5.75;;;1.75;;
61642;SDS011;47551;52.506;4.678;2022-09-25T00:58:24;5.90;;;1.77;;
61642;SDS011;47551;52.506;4.678;2022-09-25T00:58:46;6.28;;;1.75;;
61642;SDS011;47551;52.506;4.678;2022-09-25T00:59:07;6.47;;;1.70;;
61642;SDS011;47551;52.506;4.678;2022-09-25T00:59:38;5.30;;;1.70;;
61642;SDS011;47551;52.506;4.678;2022-09-25T01:00:01;5.10;;;1.70;;
61642;SDS011;47551;52.506;4.678;2022-09-25T01:00:22;5.60;;;1.90;;
61642;SDS011;47551;52.506;4.678;2022-09-25T01:00:43;6.33;;;1.93;;
61642;SDS011;47551;52.506;4.678;2022-09-25T01:01:03;5.93;;;1.80;;
61642;SDS011;47551;52.506;4.678;2022-09-25T01:01:23;5.67;;;1.70;;
61642;SDS011;47551;52.506;4.678;2022-09-25T01:01:43;5.97;;;1.60;;
61642;SDS011;47551;52.506;4.678;2022-09-25T01:02:05;5.07;;;1.70;;
61642;SDS011;47551;52.506;4.678;2022-09-25T01:02:37;4.95;;;1.65;;
61642;SDS011;47551;52.506;4.678;2022-09-25T01:02:58;5.40;;;1.63;;
61642;SDS011;47551;52.506;4.678;2022-09-25T01:03:22;4.90;;;1.47;;
61642;SDS011;47551;52.506;4.678;2022-09-25T01:03:42;5.55;;;1.63;;
61642;SDS011;47551;52.506;4.678;2022-09-25T01:04:05;5.97;;;1.73;;
61642;SDS011;47551;52.506;4.678;2022-09-25T01:04:26;6.05;;;1.85;;
61642;SDS011;47551;52.506;4.678;2022-09-25T01:04:47;5.72;;;1.73;;
61642;SDS011;47551;52.506;4.678;2022-09-25T01:05:09;4.27;;;1.70;;
61642;SDS011;47551;52.506;4.678;2022-09-25T01:05:31;6.03;;;1.88;;
61642;SDS011;47551;52.506;4.678;2022-09-25T01:05:52;5.15;;;1.95;;
61642;SDS011;47551;52.506;4.678;2022-09-25T01:06:13;5.35;;;1.80;;
61642;SDS011;47551;52.506;4.678;2022-09-25T01:06:34;4.45;;;1.70;;
61642;SDS011;47551;52.506;4.678;2022-09-25T01:06:54;5.87;;;1.70;;
61642;SDS011;47551;52.506;4.678;2022-09-25T01:07:17;7.15;;;1.80;;
61642;SDS011;47551;52.506;4.678;2022-09-25T01:07:42;6.13;;;1.75;;
61642;SDS011;47551;52.506;4.678;2022-09-25T01:08:03;5.43;;;1.67;;
61642;SDS011;47551;52.506;4.678;2022-09-25T01:08:25;4.55;;;1.70;;
61642;SDS011;47551;52.506;4.678;2022-09-25T01:08:46;4.30;;;1.80;;
61642;SDS011;47551;52.506;4.678;2022-09-25T01:09:06;4.55;;;1.90;;
61642;SDS011;47551;52.506;4.678;2022-09-25T01:09:27;4.70;;;1.80;;
61642;SDS011;47551;52.506;4.678;2022-09-25T01:09:47;6.30;;;1.90;;
61642;SDS011;47551;52.506;4.678;2022-09-25T01:10:08;5.72;;;1.92;;
61642;SDS011;47551;52.506;4.678;2022-09-25T01:10:29;5.47;;;1.85;;
61642;SDS011;47551;52.506;4.678;2022-09-25T01:10:49;5.90;;;1.73;;
61642;SDS011;47551;52.506;4.678;2022-09-25T01:11:09;4.83;;;1.50;;
61642;SDS011;47551;52.506;4.678;2022-09-25T01:11:29;5.13;;;1.73;;
61642;SDS011;47551;52.506;4.678;2022-09-25T01:11:50;6.60;;;2.00;;
61642;SDS011;47551;52.506;4.678;2022-09-25T01:12:10;5.10;;;1.70;;
61642;SDS011;47551;52.506;4.678;2022-09-25T01:12:30;5.22;;;1.70;;
61642;SDS011;47551;52.506;4.678;2022-09-25T01:12:51;5.87;;;1.73;;
61642;SDS011;47551;52.506;4.678;2022-09-25T01:13:11;5.95;;;1.80;;
61642;SDS011;47551;52.506;4.678;2022-09-25T01:13:32;5.60;;;1.70;;
61642;SDS011;47551;52.506;4.678;2022-09-25T01:13:53;5.87;;;1.63;;
61642;SDS011;47551;52.506;4.678;2022-09-25T01:14:14;6.85;;;1.85;;
61642;SDS011;47551;52.506;4.678;2022-09-25T01:14:36;5.35;;;1.75;;
61642;SDS011;47551;52.506;4.678;2022-09-25T01:14:57;5.45;;;1.80;;
61642;SDS011;47551;52.506;4.678;2022-09-25T01:15:19;5.50;;;1.80;;
61642;SDS011;47551;52.506;4.678;2022-09-25T01:15:42;5.03;;;1.75;;
61642;SDS011;47551;52.506;4.678;2022-09-25T01:16:19;5.35;;;1.73;;
61642;SDS011;47551;52.506;4.678;2022-09-25T01:17:40;4.72;;;1.70;;
61642;SDS011;47551;52.506;4.678;2022-09-25T01:18:36;6.07;;;1.67;;
61642;SDS011;47551;52.506;4.678;2022-09-25T01:20:13;5.47;;;1.70;;
61642;SDS011;47551;52.506;4.678;2022-09-25T01:21:35;6.35;;;1.95;;
61642;SDS011;47551;52.506;4.678;2022-09-25T01:22:04;4.82;;;1.67;;
61642;SDS011;47551;52.506;4.678;2022-09-25T01:22:35;4.50;;;1.80;;
61642;SDS011;47551;52.506;4.678;2022-09-25T01:23:54;6.28;;;1.90;;
61642;SDS011;47551;52.506;4.678;2022-09-25T01:24:59;5.03;;;1.60;;
61642;SDS011;47551;52.506;4.678;2022-09-25T01:25:58;4.05;;;1.50;;
61642;SDS011;47551;52.506;4.678;2022-09-25T01:26:24;6.40;;;1.70;;
61642;SDS011;47551;52.506;4.678;2022-09-25T01:29:26;4.53;;;1.63;;
61642;SDS011;47551;52.506;4.678;2022-09-25T01:30:14;4.93;;;1.88;;
61642;SDS011;47551;52.506;4.678;2022-09-25T01:30:35;5.88;;;1.80;;
61642;SDS011;47551;52.506;4.678;2022-09-25T01:31:03;5.45;;;1.60;;
61642;SDS011;47551;52.506;4.678;2022-09-25T01:33:41;5.65;;;1.50;;
61642;SDS011;47551;52.506;4.678;2022-09-25T01:36:15;4.95;;;1.70;;
61642;SDS011;47551;52.506;4.678;2022-09-25T01:36:37;5.97;;;1.50;;
61642;SDS011;47551;52.506;4.678;2022-09-25T01:37:02;4.53;;;1.33;;
61642;SDS011;47551;52.506;4.678;2022-09-25T01:38:01;5.13;;;1.70;;
61642;SDS011;47551;52.506;4.678;2022-09-25T01:38:27;4.43;;;1.55;;
61642;SDS011;47551;52.506;4.678;2022-09-25T01:38:52;4.03;;;1.70;;
61642;SDS011;47551;52.506;4.678;2022-09-25T01:39:17;4.55;;;1.42;;
61642;SDS011;47551;52.506;4.678;2022-09-25T01:39:45;6.00;;;1.52;;
61642;SDS011;47551;52.506;4.678;2022-09-25T01:40:16;4.63;;;1.70;;
61642;SDS011;47551;52.506;4.678;2022-09-25T01:40:47;4.78;;;1.40;;
61642;SDS011;47551;52.506;4.678;2022-09-25T01:41:10;4.72;;;1.50;;
61642;SDS011;47551;52.506;4.678;2022-09-25T01:41:36;4.47;;;1.60;;
61642;SDS011;47551;52.506;4.678;2022-09-25T01:42:12;6.38;;;1.70;;
61642;SDS011;47551;52.506;4.678;2022-09-25T01:42:39;4.88;;;1.55;;
61642;SDS011;47551;52.506;4.678;2022-09-25T01:43:15;5.07;;;1.60;;
61642;SDS011;47551;52.506;4.678;2022-09-25T01:43:41;5.25;;;1.70;;
61642;SDS011;47551;52.506;4.678;2022-09-25T01:44:17;5.82;;;1.50;;
61642;SDS011;47551;52.506;4.678;2022-09-25T01:44:43;4.70;;;1.38;;
61642;SDS011;47551;52.506;4.678;2022-09-25T01:45:27;4.25;;;1.45;;
61642;SDS011;47551;52.506;4.678;2022-09-25T01:45:54;4.47;;;1.38;;
61642;SDS011;47551;52.506;4.678;2022-09-25T01:46:19;3.95;;;1.52;;
61642;SDS011;47551;52.506;4.678;2022-09-25T01:46:47;5.22;;;1.60;;
61642;SDS011;47551;52.506;4.678;2022-09-25T01:47:12;4.22;;;1.60;;
61642;SDS011;47551;52.506;4.678;2022-09-25T01:47:34;5.00;;;1.70;;
61642;SDS011;47551;52.506;4.678;2022-09-25T01:47:57;4.45;;;1.48;;
61642;SDS011;47551;52.506;4.678;2022-09-25T01:48:20;3.63;;;1.50;;
61642;SDS011;47551;52.506;4.678;2022-09-25T01:48:44;6.18;;;1.70;;
61642;SDS011;47551;52.506;4.678;2022-09-25T01:49:49;4.90;;;1.60;;
61642;SDS011;47551;52.506;4.678;2022-09-25T01:50:13;4.55;;;1.52;;
61642;SDS011;47551;52.506;4.678;2022-09-25T01:50:39;4.43;;;1.58;;
61642;SDS011;47551;52.506;4.678;2022-09-25T01:51:40;4.65;;;1.50;;
61642;SDS011;47551;52.506;4.678;2022-09-25T01:52:04;5.20;;;1.60;;
61642;SDS011;47551;52.506;4.678;2022-09-25T01:52:34;3.60;;;1.30;;
61642;SDS011;47551;52.506;4.678;2022-09-25T01:52:56;5.53;;;1.73;;
61642;SDS011;47551;52.506;4.678;2022-09-25T01:53:20;6.10;;;1.60;;
61642;SDS011;47551;52.506;4.678;2022-09-25T01:53:44;5.03;;;1.40;;
61642;SDS011;47551;52.506;4.678;2022-09-25T01:54:09;5.00;;;1.50;;
61642;SDS011;47551;52.506;4.678;2022-09-25T01:54:38;5.53;;;1.60;;
61642;SDS011;47551;52.506;4.678;2022-09-25T01:55:13;3.95;;;1.48;;
61642;SDS011;47551;52.506;4.678;2022-09-25T01:55:36;4.43;;;1.50;;
61642;SDS011;47551;52.506;4.678;2022-09-25T01:56:00;5.30;;;1.67;;
61642;SDS011;47551;52.506;4.678;2022-09-25T01:56:23;5.07;;;1.58;;
61642;SDS011;47551;52.506;4.678;2022-09-25T01:57:02;4.47;;;1.60;;
61642;SDS011;47551;52.506;4.678;2022-09-25T01:58:35;4.83;;;1.70;;
61642;SDS011;47551;52.506;4.678;2022-09-25T01:59:39;4.25;;;1.40;;
61642;SDS011;47551;52.506;4.678;2022-09-25T01:59:44;4.95;;;1.60;;
61642;SDS011;47551;52.506;4.678;2022-09-25T02:00:08;4.32;;;1.50;;
61642;SDS011;47551;52.506;4.678;2022-09-25T02:00:29;5.57;;;1.40;;
61642;SDS011;47551;52.506;4.678;2022-09-25T02:01:31;3.37;;;1.30;;
61642;SDS011;47551;52.506;4.678;2022-09-25T02:01:33;4.53;;;1.60;;
61642;SDS011;47551;52.506;4.678;2022-09-25T02:01:54;5.20;;;1.60;;
61642;SDS011;47551;52.506;4.678;2022-09-25T02:02:16;3.50;;;1.50;;
61642;SDS011;47551;52.506;4.678;2022-09-25T02:02:39;4.22;;;1.50;;
61642;SDS011;47551;52.506;4.678;2022-09-25T02:03:13;3.30;;;1.45;;
61642;SDS011;47551;52.506;4.678;2022-09-25T02:03:38;5.57;;;1.70;;
61642;SDS011;47551;52.506;4.678;2022-09-25T02:04:04;5.78;;;1.60;;
61642;SDS011;47551;52.506;4.678;2022-09-25T02:04:31;4.45;;;1.40;;
61642;SDS011;47551;52.506;4.678;2022-09-25T02:04:57;4.68;;;1.65;;
61642;SDS011;47551;52.506;4.678;2022-09-25T02:05:26;5.40;;;1.73;;
61642;SDS011;47551;52.506;4.678;2022-09-25T02:05:52;5.32;;;1.50;;
61642;SDS011;47551;52.506;4.678;2022-09-25T02:06:16;3.70;;;1.40;;
61642;SDS011;47551;52.506;4.678;2022-09-25T02:06:38;3.47;;;1.38;;
61642;SDS011;47551;52.506;4.678;2022-09-25T02:07:03;5.05;;;1.58;;
61642;SDS011;47551;52.506;4.678;2022-09-25T02:07:25;5.93;;;1.50;;
61642;SDS011;47551;52.506;4.678;2022-09-25T02:07:50;3.53;;;1.40;;
61642;SDS011;47551;52.506;4.678;2022-09-25T02:08:16;5.38;;;1.70;;
61642;SDS011;47551;52.506;4.678;2022-09-25T02:08:48;5.32;;;1.60;;
61642;SDS011;47551;52.506;4.678;2022-09-25T02:09:10;5.03;;;1.40;;
61642;SDS011;47551;52.506;4.678;2022-09-25T02:09:34;5.03;;;1.70;;
61642;SDS011;47551;52.506;4.678;2022-09-25T02:09:57;5.00;;;1.33;;
61642;SDS011;47551;52.506;4.678;2022-09-25T02:10:24;5.10;;;1.58;;
61642;SDS011;47551;52.506;4.678;2022-09-25T02:10:56;3.80;;;1.50;;
61642;SDS011;47551;52.506;4.678;2022-09-25T02:11:19;5.45;;;1.60;;
61642;SDS011;47551;52.506;4.678;2022-09-25T02:11:40;5.75;;;1.50;;
61642;SDS011;47551;52.506;4.678;2022-09-25T02:12:06;6.00;;;1.60;;
61642;SDS011;47551;52.506;4.678;2022-09-25T02:12:36;4.20;;;1.30;;
61642;SDS011;47551;52.506;4.678;2022-09-25T02:13:03;5.82;;;1.40;;
61642;SDS011;47551;52.506;4.678;2022-09-25T02:13:26;4.25;;;1.50;;
61642;SDS011;47551;52.506;4.678;2022-09-25T02:13:52;5.40;;;1.70;;
61642;SDS011;47551;52.506;4.678;2022-09-25T02:14:14;6.22;;;1.65;;
61642;SDS011;47551;52.506;4.678;2022-09-25T02:14:38;6.30;;;1.63;;
61642;SDS011;47551;52.506;4.678;2022-09-25T02:15:01;5.55;;;1.50;;
61642;SDS011;47551;52.506;4.678;2022-09-25T02:15:24;4.72;;;1.58;;
61642;SDS011;47551;52.506;4.678;2022-09-25T02:15:48;4.00;;;1.60;;
61642;SDS011;47551;52.506;4.678;2022-09-25T02:16:11;4.18;;;1.45;;
61642;SDS011;47551;52.506;4.678;2022-09-25T02:16:36;4.88;;;1.48;;
61642;SDS011;47551;52.506;4.678;2022-09-25T02:16:57;4.35;;;1.40;;
61642;SDS011;47551;52.506;4.678;2022-09-25T02:17:19;4.25;;;1.50;;
61642;SDS011;47551;52.506;4.678;2022-09-25T02:18:02;5.80;;;1.90;;
61642;SDS011;47551;52.506;4.678;2022-09-25T02:18:42;4.80;;;1.63;;
61642;SDS011;47551;52.506;4.678;2022-09-25T02:19:21;6.57;;;1.58;;
61642;SDS011;47551;52.506;4.678;2022-09-25T02:20:00;5.40;;;1.50;;
61642;SDS011;47551;52.506;4.678;2022-09-25T02:20:39;4.93;;;1.45;;
61642;SDS011;47551;52.506;4.678;2022-09-25T02:21:11;5.97;;;1.60;;
61642;SDS011;47551;52.506;4.678;2022-09-25T02:21:36;4.95;;;1.58;;
61642;SDS011;47551;52.506;4.678;2022-09-25T02:22:01;6.13;;;1.50;;
61642;SDS011;47551;52.506;4.678;2022-09-25T02:22:23;5.18;;;1.42;;
61642;SDS011;47551;52.506;4.678;2022-09-25T02:22:45;4.82;;;1.60;;
61642;SDS011;47551;52.506;4.678;2022-09-25T02:23:07;4.85;;;1.60;;
61642;SDS011;47551;52.506;4.678;2022-09-25T02:23:35;6.22;;;1.77;;
61642;SDS011;47551;52.506;4.678;2022-09-25T02:24:04;6.30;;;1.60;;
61642;SDS011;47551;52.506;4.678;2022-09-25T02:25:08;3.70;;;1.50;;
61642;SDS011;47551;52.506;4.678;2022-09-25T02:25:37;4.82;;;1.52;;
61642;SDS011;47551;52.506;4.678;2022-09-25T02:26:06;5.35;;;1.70;;
61642;SDS011;47551;52.506;4.678;2022-09-25T02:26:28;4.85;;;1.60;;
61642;SDS011;47551;52.506;4.678;2022-09-25T02:26:49;5.35;;;1.70;;
61642;SDS011;47551;52.506;4.678;2022-09-25T02:27:09;4.93;;;1.70;;
61642;SDS011;47551;52.506;4.678;2022-09-25T02:27:30;4.35;;;1.52;;
61642;SDS011;47551;52.506;4.678;2022-09-25T02:27:50;5.37;;;1.47;;
61642;SDS011;47551;52.506;4.678;2022-09-25T02:28:10;4.70;;;1.50;;
61642;SDS011;47551;52.506;4.678;2022-09-25T02:28:31;4.60;;;1.60;;
61642;SDS011;47551;52.506;4.678;2022-09-25T02:28:51;4.93;;;1.90;;
61642;SDS011;47551;52.506;4.678;2022-09-25T02:29:15;5.40;;;1.70;;
61642;SDS011;47551;52.506;4.678;2022-09-25T02:29:35;6.27;;;1.60;;
61642;SDS011;47551;52.506;4.678;2022-09-25T02:29:55;6.38;;;1.63;;
61642;SDS011;47551;52.506;4.678;2022-09-25T02:30:17;6.10;;;1.77;;
61642;SDS011;47551;52.506;4.678;2022-09-25T02:30:37;5.00;;;1.60;;
61642;SDS011;47551;52.506;4.678;2022-09-25T02:30:57;4.55;;;1.67;;
61642;SDS011;47551;52.506;4.678;2022-09-25T02:31:19;5.70;;;1.85;;
61642;SDS011;47551;52.506;4.678;2022-09-25T02:31:47;5.28;;;1.48;;
61642;SDS011;47551;52.506;4.678;2022-09-25T02:32:10;5.38;;;1.50;;
61642;SDS011;47551;52.506;4.678;2022-09-25T02:32:31;4.32;;;1.50;;
61642;SDS011;47551;52.506;4.678;2022-09-25T02:32:52;5.90;;;1.70;;
61642;SDS011;47551;52.506;4.678;2022-09-25T02:33:12;5.65;;;1.70;;
61642;SDS011;47551;52.506;4.678;2022-09-25T02:33:35;4.80;;;1.40;;
61642;SDS011;47551;52.506;4.678;2022-09-25T02:33:56;4.07;;;1.42;;
61642;SDS011;47551;52.506;4.678;2022-09-25T02:34:16;4.40;;;1.40;;
61642;SDS011;47551;52.506;4.678;2022-09-25T02:34:36;5.33;;;1.47;;
61642;SDS011;47551;52.506;4.678;2022-09-25T02:35:00;3.83;;;1.33;;
61642;SDS011;47551;52.506;4.678;2022-09-25T02:35:20;5.38;;;1.50;;
61642;SDS011;47551;52.506;4.678;2022-09-25T02:35:40;4.47;;;1.33;;
61642;SDS011;47551;52.506;4.678;2022-09-25T02:36:02;4.93;;;1.42;;
61642;SDS011;47551;52.506;4.678;2022-09-25T02:36:23;5.38;;;1.55;;
61642;SDS011;47551;52.506;4.678;2022-09-25T02:36:43;4.73;;;1.53;;
61642;SDS011;47551;52.506;4.678;2022-09-25T02:37:12;4.27;;;1.60;;
61642;SDS011;47551;52.506;4.678;2022-09-25T02:37:33;4.38;;;1.50;;
61642;SDS011;47551;52.506;4.678;2022-09-25T02:37:53;4.68;;;1.50;;
61642;SDS011;47551;52.506;4.678;2022-09-25T02:38:15;3.85;;;1.45;;
61642;SDS011;47551;52.506;4.678;2022-09-25T02:38:35;3.77;;;1.57;;
61642;SDS011;47551;52.506;4.678;2022-09-25T02:38:55;4.20;;;1.40;;
61642;SDS011;47551;52.506;4.678;2022-09-25T02:39:16;5.93;;;1.60;;
61642;SDS011;47551;52.506;4.678;2022-09-25T02:39:38;6.13;;;1.52;;
61642;SDS011;47551;52.506;4.678;2022-09-25T02:39:59;4.15;;;1.63;;
61642;SDS011;47551;52.506;4.678;2022-09-25T02:40:22;4.80;;;1.50;;
61642;SDS011;47551;52.506;4.678;2022-09-25T02:40:55;5.32;;;1.58;;
61642;SDS011;47551;52.506;4.678;2022-09-25T02:41:48;4.75;;;1.50;;